sensor_id;sensor_type;location;lat;lon;timestamp;P1;durP1;ratioP1;P2;durP2;ratioP2
22287;SDS011;11312;51.464;6.968;2023-04-19T00:00:18;5.35;;;2.35;;
22287;SDS011;11312;51.464;6.968;2023-04-19T00:02:45;4.97;;;2.00;;
22287;SDS011;11312;51.464;6.968;2023-04-19T00:05:13;6.43;;;2.15;;
22287;SDS011;11312;51.464;6.968;2023-04-19T00:07:39;6.05;;;2.45;;
22287;SDS011;11312;51.464;6.968;2023-04-19T00:10:05;7.55;;;2.60;;
22287;SDS011;11312;51.464;6.968;2023-04-19T00:12:31;6.30;;;2.38;;
22287;SDS011;11312;51.464;6.968;2023-04-19T00:14:57;5.13;;;2.17;;
22287;SDS011;11312;51.464;6.968;2023-04-19T00:17:22;8.35;;;3.33;;
22287;SDS011;11312;51.464;6.968;2023-04-19T00:19:48;6.07;;;2.22;;
22287;SDS011;11312;51.464;6.968;2023-04-19T00:22:14;7.93;;;2.95;;
22287;SDS011;11312;51.464;6.968;2023-04-19T00:24:41;6.35;;;2.50;;
22287;SDS011;11312;51.464;6.968;2023-04-19T00:27:06;8.75;;;3.38;;
22287;SDS011;11312;51.464;6.968;2023-04-19T00:29:32;7.25;;;2.63;;
22287;SDS011;11312;51.464;6.968;2023-04-19T00:31:58;5.63;;;2.65;;
22287;SDS011;11312;51.464;6.968;2023-04-19T00:34:23;4.43;;;2.03;;
22287;SDS011;11312;51.464;6.968;2023-04-19T00:36:50;5.47;;;2.20;;
22287;SDS011;11312;51.464;6.968;2023-04-19T00:39:15;9.63;;;2.63;;
22287;SDS011;11312;51.464;6.968;2023-04-19T00:41:41;5.88;;;2.50;;
22287;SDS011;11312;51.464;6.968;2023-04-19T00:44:07;6.32;;;2.88;;
22287;SDS011;11312;51.464;6.968;2023-04-19T00:46:32;7.85;;;2.80;;
22287;SDS011;11312;51.464;6.968;2023-04-19T00:49:01;3.85;;;1.88;;
22287;SDS011;11312;51.464;6.968;2023-04-19T00:51:26;6.10;;;2.65;;
22287;SDS011;11312;51.464;6.968;2023-04-19T00:53:52;6.07;;;2.38;;
22287;SDS011;11312;51.464;6.968;2023-04-19T00:56:18;4.07;;;2.08;;
22287;SDS011;11312;51.464;6.968;2023-04-19T00:58:46;6.30;;;2.50;;
22287;SDS011;11312;51.464;6.968;2023-04-19T01:01:12;4.40;;;2.13;;
22287;SDS011;11312;51.464;6.968;2023-04-19T01:03:38;7.30;;;2.92;;
22287;SDS011;11312;51.464;6.968;2023-04-19T01:06:04;5.53;;;2.42;;
22287;SDS011;11312;51.464;6.968;2023-04-19T01:08:30;3.65;;;1.73;;
22287;SDS011;11312;51.464;6.968;2023-04-19T01:10:55;5.97;;;2.17;;
22287;SDS011;11312;51.464;6.968;2023-04-19T01:13:21;4.40;;;2.30;;
22287;SDS011;11312;51.464;6.968;2023-04-19T01:15:47;7.80;;;3.35;;
22287;SDS011;11312;51.464;6.968;2023-04-19T01:18:12;4.97;;;2.00;;
22287;SDS011;11312;51.464;6.968;2023-04-19T01:20:38;5.45;;;2.50;;
22287;SDS011;11312;51.464;6.968;2023-04-19T01:23:04;3.65;;;1.60;;
22287;SDS011;11312;51.464;6.968;2023-04-19T01:25:30;4.03;;;1.75;;
22287;SDS011;11312;51.464;6.968;2023-04-19T01:27:55;4.30;;;1.92;;
22287;SDS011;11312;51.464;6.968;2023-04-19T01:30:21;3.47;;;1.60;;
22287;SDS011;11312;51.464;6.968;2023-04-19T01:32:46;6.60;;;2.83;;
22287;SDS011;11312;51.464;6.968;2023-04-19T01:35:12;2.90;;;1.52;;
22287;SDS011;11312;51.464;6.968;2023-04-19T01:37:38;5.45;;;2.30;;
22287;SDS011;11312;51.464;6.968;2023-04-19T01:40:04;7.18;;;2.38;;
22287;SDS011;11312;51.464;6.968;2023-04-19T01:42:30;4.18;;;2.00;;
22287;SDS011;11312;51.464;6.968;2023-04-19T01:44:55;5.50;;;2.17;;
22287;SDS011;11312;51.464;6.968;2023-04-19T01:47:22;5.75;;;2.15;;
22287;SDS011;11312;51.464;6.968;2023-04-19T01:49:49;5.13;;;2.58;;
22287;SDS011;11312;51.464;6.968;2023-04-19T01:52:14;4.07;;;1.83;;
22287;SDS011;11312;51.464;6.968;2023-04-19T01:54:40;3.92;;;1.95;;
22287;SDS011;11312;51.464;6.968;2023-04-19T01:57:05;6.88;;;3.05;;
22287;SDS011;11312;51.464;6.968;2023-04-19T01:59:31;2.08;;;1.40;;
22287;SDS011;11312;51.464;6.968;2023-04-19T02:01:57;5.70;;;2.13;;
22287;SDS011;11312;51.464;6.968;2023-04-19T02:04:22;5.43;;;2.28;;
22287;SDS011;11312;51.464;6.968;2023-04-19T02:06:48;3.60;;;1.60;;
22287;SDS011;11312;51.464;6.968;2023-04-19T02:09:13;5.32;;;2.30;;
22287;SDS011;11312;51.464;6.968;2023-04-19T02:11:39;9.45;;;3.25;;
22287;SDS011;11312;51.464;6.968;2023-04-19T02:14:05;5.00;;;2.15;;
22287;SDS011;11312;51.464;6.968;2023-04-19T02:16:30;7.45;;;2.60;;
22287;SDS011;11312;51.464;6.968;2023-04-19T02:18:56;6.45;;;2.15;;
22287;SDS011;11312;51.464;6.968;2023-04-19T02:21:22;5.18;;;2.22;;
22287;SDS011;11312;51.464;6.968;2023-04-19T02:23:48;3.90;;;1.75;;
22287;SDS011;11312;51.464;6.968;2023-04-19T02:26:14;4.90;;;2.05;;
22287;SDS011;11312;51.464;6.968;2023-04-19T02:28:39;3.20;;;1.65;;
22287;SDS011;11312;51.464;6.968;2023-04-19T02:31:05;4.90;;;2.30;;
22287;SDS011;11312;51.464;6.968;2023-04-19T02:33:31;4.38;;;1.90;;
22287;SDS011;11312;51.464;6.968;2023-04-19T02:35:56;4.18;;;1.75;;
22287;SDS011;11312;51.464;6.968;2023-04-19T02:38:22;5.10;;;2.00;;
22287;SDS011;11312;51.464;6.968;2023-04-19T02:40:47;4.20;;;2.05;;
22287;SDS011;11312;51.464;6.968;2023-04-19T02:43:13;5.00;;;1.98;;
22287;SDS011;11312;51.464;6.968;2023-04-19T02:45:39;6.28;;;2.45;;
22287;SDS011;11312;51.464;6.968;2023-04-19T02:48:05;4.95;;;1.80;;
22287;SDS011;11312;51.464;6.968;2023-04-19T02:50:31;4.97;;;1.98;;
22287;SDS011;11312;51.464;6.968;2023-04-19T02:52:57;3.65;;;1.83;;
22287;SDS011;11312;51.464;6.968;2023-04-19T02:55:23;4.50;;;1.85;;
22287;SDS011;11312;51.464;6.968;2023-04-19T02:57:48;4.75;;;2.22;;
22287;SDS011;11312;51.464;6.968;2023-04-19T03:00:14;5.18;;;2.15;;
22287;SDS011;11312;51.464;6.968;2023-04-19T03:02:40;5.50;;;2.10;;
22287;SDS011;11312;51.464;6.968;2023-04-19T03:05:08;4.28;;;1.83;;
22287;SDS011;11312;51.464;6.968;2023-04-19T03:07:34;7.43;;;2.30;;
22287;SDS011;11312;51.464;6.968;2023-04-19T03:10:00;4.93;;;1.95;;
22287;SDS011;11312;51.464;6.968;2023-04-19T03:12:26;4.50;;;2.00;;
22287;SDS011;11312;51.464;6.968;2023-04-19T03:14:51;4.03;;;1.88;;
22287;SDS011;11312;51.464;6.968;2023-04-19T03:17:17;4.32;;;1.65;;
22287;SDS011;11312;51.464;6.968;2023-04-19T03:19:43;6.10;;;2.25;;
22287;SDS011;11312;51.464;6.968;2023-04-19T03:22:08;3.78;;;1.75;;
22287;SDS011;11312;51.464;6.968;2023-04-19T03:24:34;3.67;;;1.90;;
22287;SDS011;11312;51.464;6.968;2023-04-19T03:27:00;5.13;;;1.80;;
22287;SDS011;11312;51.464;6.968;2023-04-19T03:29:26;4.47;;;2.28;;
22287;SDS011;11312;51.464;6.968;2023-04-19T03:31:52;5.43;;;2.03;;
22287;SDS011;11312;51.464;6.968;2023-04-19T03:34:18;5.07;;;2.28;;
22287;SDS011;11312;51.464;6.968;2023-04-19T03:36:43;9.07;;;3.03;;
22287;SDS011;11312;51.464;6.968;2023-04-19T03:39:09;2.97;;;1.52;;
22287;SDS011;11312;51.464;6.968;2023-04-19T03:41:34;5.80;;;1.80;;
22287;SDS011;11312;51.464;6.968;2023-04-19T03:44:00;5.13;;;1.80;;
22287;SDS011;11312;51.464;6.968;2023-04-19T03:46:26;7.35;;;2.70;;
22287;SDS011;11312;51.464;6.968;2023-04-19T03:48:55;3.75;;;1.67;;
22287;SDS011;11312;51.464;6.968;2023-04-19T03:51:21;3.17;;;1.60;;
22287;SDS011;11312;51.464;6.968;2023-04-19T03:53:46;2.85;;;1.52;;
22287;SDS011;11312;51.464;6.968;2023-04-19T03:56:12;4.95;;;1.88;;
22287;SDS011;11312;51.464;6.968;2023-04-19T03:58:37;4.43;;;1.67;;
22287;SDS011;11312;51.464;6.968;2023-04-19T04:01:03;4.65;;;2.35;;
22287;SDS011;11312;51.464;6.968;2023-04-19T04:03:30;2.50;;;1.40;;
22287;SDS011;11312;51.464;6.968;2023-04-19T04:05:56;2.53;;;1.50;;
22287;SDS011;11312;51.464;6.968;2023-04-19T04:08:22;3.33;;;1.50;;
22287;SDS011;11312;51.464;6.968;2023-04-19T04:10:48;2.45;;;1.48;;
22287;SDS011;11312;51.464;6.968;2023-04-19T04:13:13;4.85;;;2.10;;
22287;SDS011;11312;51.464;6.968;2023-04-19T04:15:39;4.78;;;2.22;;
22287;SDS011;11312;51.464;6.968;2023-04-19T04:18:04;8.02;;;2.35;;
22287;SDS011;11312;51.464;6.968;2023-04-19T04:20:30;3.67;;;2.03;;
22287;SDS011;11312;51.464;6.968;2023-04-19T04:22:56;3.13;;;1.52;;
22287;SDS011;11312;51.464;6.968;2023-04-19T04:25:21;3.03;;;1.55;;
22287;SDS011;11312;51.464;6.968;2023-04-19T04:27:49;2.95;;;1.50;;
22287;SDS011;11312;51.464;6.968;2023-04-19T04:30:16;5.80;;;2.47;;
22287;SDS011;11312;51.464;6.968;2023-04-19T04:32:42;4.13;;;1.77;;
22287;SDS011;11312;51.464;6.968;2023-04-19T04:35:09;4.75;;;1.92;;
22287;SDS011;11312;51.464;6.968;2023-04-19T04:37:35;5.50;;;2.00;;
22287;SDS011;11312;51.464;6.968;2023-04-19T04:40:01;2.40;;;1.40;;
22287;SDS011;11312;51.464;6.968;2023-04-19T04:42:31;2.70;;;1.60;;
22287;SDS011;11312;51.464;6.968;2023-04-19T04:44:57;2.80;;;1.52;;
22287;SDS011;11312;51.464;6.968;2023-04-19T04:47:29;3.08;;;1.73;;
22287;SDS011;11312;51.464;6.968;2023-04-19T04:49:59;3.38;;;1.63;;
22287;SDS011;11312;51.464;6.968;2023-04-19T04:52:25;3.97;;;1.70;;
22287;SDS011;11312;51.464;6.968;2023-04-19T04:54:50;3.33;;;1.65;;
22287;SDS011;11312;51.464;6.968;2023-04-19T04:57:16;3.67;;;1.88;;
22287;SDS011;11312;51.464;6.968;2023-04-19T04:59:41;4.50;;;1.88;;
22287;SDS011;11312;51.464;6.968;2023-04-19T05:02:07;3.63;;;1.75;;
22287;SDS011;11312;51.464;6.968;2023-04-19T05:04:32;4.75;;;2.00;;
22287;SDS011;11312;51.464;6.968;2023-04-19T05:06:58;4.65;;;1.83;;
22287;SDS011;11312;51.464;6.968;2023-04-19T05:09:24;4.68;;;2.00;;
22287;SDS011;11312;51.464;6.968;2023-04-19T05:11:49;2.50;;;1.40;;
22287;SDS011;11312;51.464;6.968;2023-04-19T05:14:15;3.35;;;1.60;;
22287;SDS011;11312;51.464;6.968;2023-04-19T05:16:41;2.92;;;1.50;;
22287;SDS011;11312;51.464;6.968;2023-04-19T05:19:06;2.63;;;1.50;;
22287;SDS011;11312;51.464;6.968;2023-04-19T05:21:32;3.50;;;1.70;;
22287;SDS011;11312;51.464;6.968;2023-04-19T05:23:58;2.97;;;1.63;;
22287;SDS011;11312;51.464;6.968;2023-04-19T05:26:24;3.13;;;1.60;;
22287;SDS011;11312;51.464;6.968;2023-04-19T05:28:50;3.25;;;1.75;;
22287;SDS011;11312;51.464;6.968;2023-04-19T05:31:15;4.22;;;1.70;;
22287;SDS011;11312;51.464;6.968;2023-04-19T05:33:42;4.53;;;2.20;;
22287;SDS011;11312;51.464;6.968;2023-04-19T05:36:07;5.63;;;2.08;;
22287;SDS011;11312;51.464;6.968;2023-04-19T05:38:33;4.80;;;2.00;;
22287;SDS011;11312;51.464;6.968;2023-04-19T05:40:59;4.97;;;2.30;;
22287;SDS011;11312;51.464;6.968;2023-04-19T05:43:25;3.70;;;1.83;;
22287;SDS011;11312;51.464;6.968;2023-04-19T05:45:50;4.90;;;2.25;;
22287;SDS011;11312;51.464;6.968;2023-04-19T05:48:16;3.55;;;1.80;;
22287;SDS011;11312;51.464;6.968;2023-04-19T05:50:42;4.20;;;1.85;;
22287;SDS011;11312;51.464;6.968;2023-04-19T05:53:07;2.92;;;1.52;;
22287;SDS011;11312;51.464;6.968;2023-04-19T05:55:33;3.35;;;1.67;;
22287;SDS011;11312;51.464;6.968;2023-04-19T05:57:58;4.45;;;2.13;;
22287;SDS011;11312;51.464;6.968;2023-04-19T06:00:24;3.35;;;1.70;;
22287;SDS011;11312;51.464;6.968;2023-04-19T06:02:50;5.30;;;2.17;;
22287;SDS011;11312;51.464;6.968;2023-04-19T06:05:15;5.35;;;2.10;;
22287;SDS011;11312;51.464;6.968;2023-04-19T06:07:41;4.50;;;2.13;;
22287;SDS011;11312;51.464;6.968;2023-04-19T06:10:07;4.15;;;1.90;;
22287;SDS011;11312;51.464;6.968;2023-04-19T06:12:33;5.47;;;2.45;;
22287;SDS011;11312;51.464;6.968;2023-04-19T06:14:58;3.70;;;1.75;;
22287;SDS011;11312;51.464;6.968;2023-04-19T06:17:24;5.00;;;1.98;;
22287;SDS011;11312;51.464;6.968;2023-04-19T06:19:50;3.95;;;1.77;;
22287;SDS011;11312;51.464;6.968;2023-04-19T06:22:16;6.18;;;2.58;;
22287;SDS011;11312;51.464;6.968;2023-04-19T06:24:45;5.45;;;2.10;;
22287;SDS011;11312;51.464;6.968;2023-04-19T06:27:11;2.88;;;1.50;;
22287;SDS011;11312;51.464;6.968;2023-04-19T06:29:38;2.90;;;1.55;;
22287;SDS011;11312;51.464;6.968;2023-04-19T06:32:04;3.05;;;1.60;;
22287;SDS011;11312;51.464;6.968;2023-04-19T06:34:29;5.30;;;2.13;;
22287;SDS011;11312;51.464;6.968;2023-04-19T06:36:55;3.65;;;1.73;;
22287;SDS011;11312;51.464;6.968;2023-04-19T06:39:21;2.80;;;1.58;;
22287;SDS011;11312;51.464;6.968;2023-04-19T06:41:46;3.28;;;1.50;;
22287;SDS011;11312;51.464;6.968;2023-04-19T06:44:12;3.00;;;1.60;;
22287;SDS011;11312;51.464;6.968;2023-04-19T06:46:38;26.15;;;3.03;;
22287;SDS011;11312;51.464;6.968;2023-04-19T06:49:03;3.38;;;1.60;;
22287;SDS011;11312;51.464;6.968;2023-04-19T06:51:29;3.03;;;1.50;;
22287;SDS011;11312;51.464;6.968;2023-04-19T06:53:55;2.00;;;1.40;;
22287;SDS011;11312;51.464;6.968;2023-04-19T06:59:06;1.30;;;1.20;;
22287;SDS011;11312;51.464;6.968;2023-04-19T07:01:32;4.88;;;1.90;;
22287;SDS011;11312;51.464;6.968;2023-04-19T07:03:57;5.63;;;1.65;;
22287;SDS011;11312;51.464;6.968;2023-04-19T07:06:23;2.35;;;1.30;;
22287;SDS011;11312;51.464;6.968;2023-04-19T07:08:48;3.83;;;1.90;;
22287;SDS011;11312;51.464;6.968;2023-04-19T07:11:14;3.08;;;1.40;;
22287;SDS011;11312;51.464;6.968;2023-04-19T07:13:40;43.10;;;3.00;;
22287;SDS011;11312;51.464;6.968;2023-04-19T07:16:05;2.92;;;1.83;;
22287;SDS011;11312;51.464;6.968;2023-04-19T07:18:32;4.47;;;2.08;;
22287;SDS011;11312;51.464;6.968;2023-04-19T07:20:57;1.58;;;1.20;;
22287;SDS011;11312;51.464;6.968;2023-04-19T07:23:23;3.50;;;1.63;;
22287;SDS011;11312;51.464;6.968;2023-04-19T07:25:48;1.48;;;1.20;;
22287;SDS011;11312;51.464;6.968;2023-04-19T07:28:14;4.20;;;1.85;;
22287;SDS011;11312;51.464;6.968;2023-04-19T07:30:40;4.88;;;1.92;;
22287;SDS011;11312;51.464;6.968;2023-04-19T07:33:06;1.80;;;1.30;;
22287;SDS011;11312;51.464;6.968;2023-04-19T07:35:33;3.22;;;1.73;;
22287;SDS011;11312;51.464;6.968;2023-04-19T07:37:59;2.72;;;1.55;;
22287;SDS011;11312;51.464;6.968;2023-04-19T07:40:25;3.28;;;1.67;;
22287;SDS011;11312;51.464;6.968;2023-04-19T07:42:53;2.17;;;1.30;;
22287;SDS011;11312;51.464;6.968;2023-04-19T07:45:19;2.58;;;1.45;;
22287;SDS011;11312;51.464;6.968;2023-04-19T07:47:45;1.23;;;1.10;;
22287;SDS011;11312;51.464;6.968;2023-04-19T07:50:11;3.63;;;1.75;;
22287;SDS011;11312;51.464;6.968;2023-04-19T07:52:36;2.65;;;1.50;;
22287;SDS011;11312;51.464;6.968;2023-04-19T07:55:02;2.70;;;1.38;;
22287;SDS011;11312;51.464;6.968;2023-04-19T07:57:28;2.13;;;1.20;;
22287;SDS011;11312;51.464;6.968;2023-04-19T08:16:56;2.75;;;1.50;;
22287;SDS011;11312;51.464;6.968;2023-04-19T08:19:21;2.60;;;1.35;;
22287;SDS011;11312;51.464;6.968;2023-04-19T08:21:47;2.40;;;1.40;;
22287;SDS011;11312;51.464;6.968;2023-04-19T08:24:12;1.10;;;1.00;;
22287;SDS011;11312;51.464;6.968;2023-04-19T08:29:04;1.73;;;1.13;;
22287;SDS011;11312;51.464;6.968;2023-04-19T08:31:29;1.08;;;0.98;;
22287;SDS011;11312;51.464;6.968;2023-04-19T08:33:55;1.70;;;1.10;;
22287;SDS011;11312;51.464;6.968;2023-04-19T08:41:13;2.33;;;1.33;;
22287;SDS011;11312;51.464;6.968;2023-04-19T08:43:42;0.90;;;0.90;;
22287;SDS011;11312;51.464;6.968;2023-04-19T08:46:09;1.10;;;1.00;;
22287;SDS011;11312;51.464;6.968;2023-04-19T08:48:35;1.77;;;1.13;;
22287;SDS011;11312;51.464;6.968;2023-04-19T08:51:02;3.50;;;1.42;;
22287;SDS011;11312;51.464;6.968;2023-04-19T08:53:28;1.13;;;1.00;;
22287;SDS011;11312;51.464;6.968;2023-04-19T08:55:54;1.00;;;1.00;;
22287;SDS011;11312;51.464;6.968;2023-04-19T09:00:49;2.20;;;1.30;;
22287;SDS011;11312;51.464;6.968;2023-04-19T09:03:15;1.70;;;1.10;;
22287;SDS011;11312;51.464;6.968;2023-04-19T09:05:40;2.78;;;1.58;;
22287;SDS011;11312;51.464;6.968;2023-04-19T09:10:57;1.55;;;1.20;;
22287;SDS011;11312;51.464;6.968;2023-04-19T09:13:25;5.32;;;1.85;;
22287;SDS011;11312;51.464;6.968;2023-04-19T09:15:52;1.23;;;1.10;;
22287;SDS011;11312;51.464;6.968;2023-04-19T09:18:21;2.38;;;1.25;;
22287;SDS011;11312;51.464;6.968;2023-04-19T09:20:50;1.55;;;1.13;;
22287;SDS011;11312;51.464;6.968;2023-04-19T09:23:21;2.50;;;1.48;;
22287;SDS011;11312;51.464;6.968;2023-04-19T09:28:25;1.20;;;1.10;;
22287;SDS011;11312;51.464;6.968;2023-04-19T09:30:52;1.75;;;1.10;;
22287;SDS011;11312;51.464;6.968;2023-04-19T09:33:35;0.80;;;0.80;;
22287;SDS011;11312;51.464;6.968;2023-04-19T09:36:06;1.27;;;1.10;;
22287;SDS011;11312;51.464;6.968;2023-04-19T09:38:47;0.90;;;0.90;;
22287;SDS011;11312;51.464;6.968;2023-04-19T09:41:14;1.20;;;0.98;;
22287;SDS011;11312;51.464;6.968;2023-04-19T09:43:41;1.67;;;1.23;;
22287;SDS011;11312;51.464;6.968;2023-04-19T09:46:07;1.85;;;1.20;;
22287;SDS011;11312;51.464;6.968;2023-04-19T09:48:33;1.10;;;1.00;;
22287;SDS011;11312;51.464;6.968;2023-04-19T09:51:01;3.80;;;1.17;;
22287;SDS011;11312;51.464;6.968;2023-04-19T09:53:29;1.10;;;1.00;;
22287;SDS011;11312;51.464;6.968;2023-04-19T09:55:58;0.98;;;0.93;;
22287;SDS011;11312;51.464;6.968;2023-04-19T09:58:23;1.73;;;1.35;;
22287;SDS011;11312;51.464;6.968;2023-04-19T10:00:49;2.90;;;1.20;;
22287;SDS011;11312;51.464;6.968;2023-04-19T10:03:16;1.10;;;1.00;;
22287;SDS011;11312;51.464;6.968;2023-04-19T10:08:10;1.10;;;1.00;;
22287;SDS011;11312;51.464;6.968;2023-04-19T10:10:36;2.67;;;1.33;;
22287;SDS011;11312;51.464;6.968;2023-04-19T10:13:05;1.45;;;1.15;;
22287;SDS011;11312;51.464;6.968;2023-04-19T10:15:33;1.70;;;1.00;;
22287;SDS011;11312;51.464;6.968;2023-04-19T10:18:01;1.00;;;0.90;;
22287;SDS011;11312;51.464;6.968;2023-04-19T10:20:41;3.60;;;1.38;;
22287;SDS011;11312;51.464;6.968;2023-04-19T10:23:24;0.80;;;0.80;;
22287;SDS011;11312;51.464;6.968;2023-04-19T10:28:22;1.35;;;0.98;;
22287;SDS011;11312;51.464;6.968;2023-04-19T10:30:54;2.40;;;1.10;;
22287;SDS011;11312;51.464;6.968;2023-04-19T10:33:30;3.03;;;1.23;;
22287;SDS011;11312;51.464;6.968;2023-04-19T10:36:00;3.67;;;1.52;;
22287;SDS011;11312;51.464;6.968;2023-04-19T10:38:39;1.73;;;0.90;;
22287;SDS011;11312;51.464;6.968;2023-04-19T10:41:08;1.27;;;0.80;;
22287;SDS011;11312;51.464;6.968;2023-04-19T10:43:39;0.70;;;0.70;;
22287;SDS011;11312;51.464;6.968;2023-04-19T11:16:55;1.35;;;0.85;;
22287;SDS011;11312;51.464;6.968;2023-04-19T11:19:20;0.63;;;0.55;;
22287;SDS011;11312;51.464;6.968;2023-04-19T11:29:14;1.87;;;1.00;;
22287;SDS011;11312;51.464;6.968;2023-04-19T11:31:42;1.40;;;0.82;;
22287;SDS011;11312;51.464;6.968;2023-04-19T11:34:10;0.20;;;0.20;;
22287;SDS011;11312;51.464;6.968;2023-04-19T11:36:45;1.83;;;0.88;;
22287;SDS011;11312;51.464;6.968;2023-04-19T11:39:15;0.95;;;0.60;;
22287;SDS011;11312;51.464;6.968;2023-04-19T11:41:41;0.80;;;0.50;;
22287;SDS011;11312;51.464;6.968;2023-04-19T11:44:16;1.15;;;0.80;;
22287;SDS011;11312;51.464;6.968;2023-04-19T11:47:05;1.90;;;0.70;;
22287;SDS011;11312;51.464;6.968;2023-04-19T11:49:31;2.33;;;0.82;;
22287;SDS011;11312;51.464;6.968;2023-04-19T11:51:58;4.57;;;0.95;;
22287;SDS011;11312;51.464;6.968;2023-04-19T11:54:25;1.70;;;0.80;;
22287;SDS011;11312;51.464;6.968;2023-04-19T11:59:30;1.48;;;0.73;;
22287;SDS011;11312;51.464;6.968;2023-04-19T12:02:06;1.70;;;0.82;;
22287;SDS011;11312;51.464;6.968;2023-04-19T12:04:33;1.55;;;0.80;;
22287;SDS011;11312;51.464;6.968;2023-04-19T12:06:59;0.55;;;0.50;;
22287;SDS011;11312;51.464;6.968;2023-04-19T12:09:25;0.45;;;0.45;;
22287;SDS011;11312;51.464;6.968;2023-04-19T12:11:51;0.88;;;0.60;;
22287;SDS011;11312;51.464;6.968;2023-04-19T12:14:17;0.52;;;0.30;;
22287;SDS011;11312;51.464;6.968;2023-04-19T12:19:36;2.42;;;0.95;;
22287;SDS011;11312;51.464;6.968;2023-04-19T12:22:09;0.95;;;0.43;;
22287;SDS011;11312;51.464;6.968;2023-04-19T12:24:43;0.20;;;0.20;;
22287;SDS011;11312;51.464;6.968;2023-04-19T12:27:09;0.77;;;0.45;;
22287;SDS011;11312;51.464;6.968;2023-04-19T12:29:35;0.95;;;0.40;;
22287;SDS011;11312;51.464;6.968;2023-04-19T12:32:01;0.35;;;0.35;;
22287;SDS011;11312;51.464;6.968;2023-04-19T12:34:28;0.73;;;0.50;;
22287;SDS011;11312;51.464;6.968;2023-04-19T12:36:54;0.70;;;0.52;;
22287;SDS011;11312;51.464;6.968;2023-04-19T12:39:20;1.58;;;0.93;;
22287;SDS011;11312;51.464;6.968;2023-04-19T12:41:45;1.75;;;0.73;;
22287;SDS011;11312;51.464;6.968;2023-04-19T12:44:14;0.30;;;0.30;;
22287;SDS011;11312;51.464;6.968;2023-04-19T12:46:40;19.90;;;1.77;;
22287;SDS011;11312;51.464;6.968;2023-04-19T12:49:05;0.82;;;0.50;;
22287;SDS011;11312;51.464;6.968;2023-04-19T12:51:31;2.35;;;0.80;;
22287;SDS011;11312;51.464;6.968;2023-04-19T12:53:57;0.45;;;0.45;;
22287;SDS011;11312;51.464;6.968;2023-04-19T12:56:23;0.80;;;0.60;;
22287;SDS011;11312;51.464;6.968;2023-04-19T12:58:49;19.38;;;1.13;;
22287;SDS011;11312;51.464;6.968;2023-04-19T13:01:15;5.68;;;1.45;;
22287;SDS011;11312;51.464;6.968;2023-04-19T13:03:41;2.17;;;0.98;;
22287;SDS011;11312;51.464;6.968;2023-04-19T13:06:07;1.02;;;0.70;;
22287;SDS011;11312;51.464;6.968;2023-04-19T13:08:35;1.98;;;0.93;;
22287;SDS011;11312;51.464;6.968;2023-04-19T13:11:02;2.13;;;1.02;;
22287;SDS011;11312;51.464;6.968;2023-04-19T13:13:28;1.15;;;0.68;;
22287;SDS011;11312;51.464;6.968;2023-04-19T13:15:53;2.75;;;1.23;;
22287;SDS011;11312;51.464;6.968;2023-04-19T13:18:19;2.90;;;1.13;;
22287;SDS011;11312;51.464;6.968;2023-04-19T13:20:46;1.90;;;0.88;;
22287;SDS011;11312;51.464;6.968;2023-04-19T13:23:13;0.63;;;0.60;;
22287;SDS011;11312;51.464;6.968;2023-04-19T13:25:39;8.48;;;1.95;;
22287;SDS011;11312;51.464;6.968;2023-04-19T13:28:05;2.72;;;1.38;;
22287;SDS011;11312;51.464;6.968;2023-04-19T13:30:31;1.08;;;0.68;;
22287;SDS011;11312;51.464;6.968;2023-04-19T13:32:56;1.63;;;0.90;;
22287;SDS011;11312;51.464;6.968;2023-04-19T13:35:22;1.80;;;0.98;;
22287;SDS011;11312;51.464;6.968;2023-04-19T13:37:48;0.63;;;0.50;;
22287;SDS011;11312;51.464;6.968;2023-04-19T13:40:15;0.95;;;0.70;;
22287;SDS011;11312;51.464;6.968;2023-04-19T13:42:40;1.20;;;0.90;;
22287;SDS011;11312;51.464;6.968;2023-04-19T13:45:06;1.02;;;0.75;;
22287;SDS011;11312;51.464;6.968;2023-04-19T13:47:33;0.60;;;0.60;;
22287;SDS011;11312;51.464;6.968;2023-04-19T13:49:59;1.88;;;1.15;;
22287;SDS011;11312;51.464;6.968;2023-04-19T13:52:25;2.00;;;0.85;;
22287;SDS011;11312;51.464;6.968;2023-04-19T13:54:50;1.95;;;0.93;;
22287;SDS011;11312;51.464;6.968;2023-04-19T13:57:16;0.60;;;0.60;;
22287;SDS011;11312;51.464;6.968;2023-04-19T13:59:41;1.10;;;0.70;;
22287;SDS011;11312;51.464;6.968;2023-04-19T14:02:07;0.73;;;0.70;;
22287;SDS011;11312;51.464;6.968;2023-04-19T14:04:32;1.20;;;0.80;;
22287;SDS011;11312;51.464;6.968;2023-04-19T14:06:58;1.88;;;1.02;;
22287;SDS011;11312;51.464;6.968;2023-04-19T14:09:24;2.10;;;1.35;;
22287;SDS011;11312;51.464;6.968;2023-04-19T14:11:50;1.55;;;0.98;;
22287;SDS011;11312;51.464;6.968;2023-04-19T14:14:16;0.73;;;0.70;;
22287;SDS011;11312;51.464;6.968;2023-04-19T14:16:42;5.95;;;1.58;;
22287;SDS011;11312;51.464;6.968;2023-04-19T14:19:07;0.70;;;0.70;;
22287;SDS011;11312;51.464;6.968;2023-04-19T14:21:33;2.63;;;1.23;;
22287;SDS011;11312;51.464;6.968;2023-04-19T14:23:59;0.75;;;0.75;;
22287;SDS011;11312;51.464;6.968;2023-04-19T14:26:24;1.75;;;1.20;;
22287;SDS011;11312;51.464;6.968;2023-04-19T14:28:50;0.70;;;0.70;;
22287;SDS011;11312;51.464;6.968;2023-04-19T14:31:15;1.55;;;0.98;;
22287;SDS011;11312;51.464;6.968;2023-04-19T14:33:41;0.60;;;0.60;;
22287;SDS011;11312;51.464;6.968;2023-04-19T14:36:07;4.63;;;1.42;;
22287;SDS011;11312;51.464;6.968;2023-04-19T14:38:33;1.67;;;1.10;;
22287;SDS011;11312;51.464;6.968;2023-04-19T14:40:59;0.70;;;0.70;;
22287;SDS011;11312;51.464;6.968;2023-04-19T14:43:25;2.03;;;1.30;;
22287;SDS011;11312;51.464;6.968;2023-04-19T14:45:50;0.70;;;0.70;;
22287;SDS011;11312;51.464;6.968;2023-04-19T14:48:16;2.17;;;1.25;;
22287;SDS011;11312;51.464;6.968;2023-04-19T14:50:42;1.35;;;0.93;;
22287;SDS011;11312;51.464;6.968;2023-04-19T14:53:09;1.33;;;1.10;;
22287;SDS011;11312;51.464;6.968;2023-04-19T14:55:37;2.47;;;1.10;;
22287;SDS011;11312;51.464;6.968;2023-04-19T14:58:03;2.30;;;1.23;;
22287;SDS011;11312;51.464;6.968;2023-04-19T15:00:29;2.60;;;1.42;;
22287;SDS011;11312;51.464;6.968;2023-04-19T15:02:55;0.80;;;0.80;;
22287;SDS011;11312;51.464;6.968;2023-04-19T15:05:21;2.65;;;1.05;;
22287;SDS011;11312;51.464;6.968;2023-04-19T15:07:47;2.65;;;1.35;;
22287;SDS011;11312;51.464;6.968;2023-04-19T15:10:13;1.42;;;1.10;;
22287;SDS011;11312;51.464;6.968;2023-04-19T15:12:38;0.85;;;0.85;;
22287;SDS011;11312;51.464;6.968;2023-04-19T15:15:05;1.02;;;0.95;;
22287;SDS011;11312;51.464;6.968;2023-04-19T15:17:31;1.10;;;0.98;;
22287;SDS011;11312;51.464;6.968;2023-04-19T15:19:57;11.50;;;1.73;;
22287;SDS011;11312;51.464;6.968;2023-04-19T15:22:23;1.08;;;0.90;;
22287;SDS011;11312;51.464;6.968;2023-04-19T15:24:49;1.35;;;1.25;;
22287;SDS011;11312;51.464;6.968;2023-04-19T15:27:14;0.90;;;0.90;;
22287;SDS011;11312;51.464;6.968;2023-04-19T15:29:40;3.30;;;1.65;;
22287;SDS011;11312;51.464;6.968;2023-04-19T15:32:06;2.30;;;1.38;;
22287;SDS011;11312;51.464;6.968;2023-04-19T15:34:31;2.40;;;1.42;;
22287;SDS011;11312;51.464;6.968;2023-04-19T15:36:57;2.22;;;1.40;;
22287;SDS011;11312;51.464;6.968;2023-04-19T15:39:23;1.20;;;1.00;;
22287;SDS011;11312;51.464;6.968;2023-04-19T15:41:49;3.55;;;1.40;;
22287;SDS011;11312;51.464;6.968;2023-04-19T15:44:15;1.45;;;1.10;;
22287;SDS011;11312;51.464;6.968;2023-04-19T15:46:41;1.88;;;1.20;;
22287;SDS011;11312;51.464;6.968;2023-04-19T15:49:06;10.25;;;1.90;;
22287;SDS011;11312;51.464;6.968;2023-04-19T15:51:32;2.25;;;1.30;;
22287;SDS011;11312;51.464;6.968;2023-04-19T15:53:57;1.10;;;1.00;;
22287;SDS011;11312;51.464;6.968;2023-04-19T15:56:23;1.58;;;1.20;;
22287;SDS011;11312;51.464;6.968;2023-04-19T15:58:49;1.20;;;1.02;;
22287;SDS011;11312;51.464;6.968;2023-04-19T16:01:14;1.10;;;1.00;;
22287;SDS011;11312;51.464;6.968;2023-04-19T16:03:40;1.10;;;1.00;;
22287;SDS011;11312;51.464;6.968;2023-04-19T16:06:06;1.40;;;1.10;;